createdAt,value
2023-11-30T00:01:59.949Z,99791.84
2023-11-30T00:04:02.755Z,99782.44
2023-11-30T00:06:05.876Z,99783.22
2023-11-30T00:08:08.699Z,99779.81
2023-11-30T00:10:11.470Z,99778.91
2023-11-30T00:12:14.487Z,99778.09
2023-11-30T00:14:17.254Z,99778.91
2023-11-30T00:16:20.008Z,99767.63
2023-11-30T00:18:22.849Z,99773.69
2023-11-30T00:20:25.632Z,99766.84
2023-11-30T00:22:28.363Z,99778.06
2023-11-30T00:24:31.119Z,99771.16
2023-11-30T00:26:33.862Z,99767.72
2023-11-30T00:28:36.675Z,99778.09
2023-11-30T00:30:39.605Z,99773.81
2023-11-30T00:32:42.602Z,99774.63
2023-11-30T00:34:45.379Z,99765.00
2023-11-30T00:36:48.532Z,99764.19
2023-11-30T00:38:51.323Z,99763.28
2023-11-30T00:40:54.498Z,99772.75
2023-11-30T00:42:57.463Z,99771.03
2023-11-30T00:45:00.420Z,99762.41
2023-11-30T00:47:03.238Z,99765.81
2023-11-30T00:49:06.014Z,99769.31
2023-11-30T00:51:12.225Z,99762.41
2023-11-30T00:53:14.976Z,99763.22
2023-11-30T00:55:17.707Z,99761.41
2023-11-30T00:57:20.506Z,99757.94
2023-11-30T00:59:23.344Z,99764.00
2023-11-30T01:01:26.832Z,99760.44
2023-11-30T01:03:29.724Z,99758.63
2023-11-30T01:05:32.557Z,99759.47
2023-11-30T01:07:37.244Z,99756.81
2023-11-30T01:09:40.008Z,99759.38
2023-11-30T01:11:45.492Z,99757.69
2023-11-30T01:13:48.265Z,99750.84
2023-11-30T01:15:51.055Z,99755.13
2023-11-30T01:17:53.963Z,99757.69
2023-11-30T01:19:57.034Z,99756.84
2023-11-30T01:21:59.771Z,99752.50
2023-11-30T01:24:02.526Z,99758.53
2023-11-30T01:26:05.523Z,99750.78
2023-11-30T01:28:08.326Z,99751.63
2023-11-30T01:30:11.775Z,99746.47
2023-11-30T01:32:14.538Z,99738.59
2023-11-30T01:34:17.303Z,99730.81
2023-11-30T01:36:21.158Z,99738.63
2023-11-30T01:38:25.099Z,99737.72
2023-11-30T01:40:28.105Z,99736.81
2023-11-30T01:42:30.887Z,99732.47
2023-11-30T01:44:33.641Z,99732.53
2023-11-30T01:46:38.567Z,99735.13
2023-11-30T01:48:45.265Z,99737.78
2023-11-30T01:50:48.892Z,99733.44
2023-11-30T01:52:51.794Z,99739.50
2023-11-30T01:54:54.546Z,99737.81
2023-11-30T01:56:57.951Z,99739.59
2023-11-30T01:59:00.714Z,99737.00
2023-11-30T02:01:05.001Z,99747.50
2023-11-30T02:03:08.314Z,99738.81
2023-11-30T02:05:11.703Z,99735.34
2023-11-30T02:07:14.454Z,99727.59
2023-11-30T02:09:17.317Z,99726.69
2023-11-30T02:11:20.417Z,99737.91
2023-11-30T02:13:25.705Z,99729.25
2023-11-30T02:15:28.550Z,99741.50
2023-11-30T02:17:31.529Z,99730.22
2023-11-30T02:19:34.380Z,99733.78
2023-11-30T02:21:37.107Z,99726.91
2023-11-30T02:23:39.834Z,99727.69
2023-11-30T02:25:43.734Z,99726.84
2023-11-30T02:27:46.468Z,99719.09
2023-11-30T02:29:49.254Z,99715.56
2023-11-30T02:31:52.840Z,99712.19
2023-11-30T02:33:56.506Z,99706.84
2023-11-30T02:35:59.274Z,99714.56
2023-11-30T02:38:02.148Z,99714.41
2023-11-30T02:40:05.559Z,99718.63
2023-11-30T02:42:08.325Z,99708.25
2023-11-30T02:44:11.095Z,99712.50
2023-11-30T02:46:14.578Z,99711.56
2023-11-30T02:48:17.422Z,99720.97
2023-11-30T02:50:20.253Z,99719.16
2023-11-30T02:52:23.081Z,99720.00
2023-11-30T02:54:25.857Z,99709.69
2023-11-30T02:56:28.601Z,99694.88
2023-11-30T02:58:31.317Z,99690.66
2023-11-30T03:00:34.079Z,99684.63
2023-11-30T03:02:37.086Z,99686.34
2023-11-30T03:04:39.844Z,99677.59
2023-11-30T03:06:43.192Z,99675.03
2023-11-30T03:08:48.015Z,99669.78
2023-11-30T03:10:52.144Z,99665.41
2023-11-30T03:12:55.701Z,99665.53
2023-11-30T03:14:58.470Z,99669.91
2023-11-30T03:17:01.233Z,99668.94
2023-11-30T03:19:14.337Z,99670.78
2023-11-30T03:21:21.057Z,99677.50
2023-11-30T03:23:23.806Z,99675.69
2023-11-30T03:25:26.544Z,99687.88
2023-11-30T03:27:29.330Z,99679.94
2023-11-30T03:29:32.134Z,99682.47
2023-11-30T03:31:36.931Z,99678.94
2023-11-30T03:33:40.417Z,99674.75
2023-11-30T03:35:43.876Z,99670.16
2023-11-30T03:37:46.633Z,99658.97
2023-11-30T03:39:49.455Z,99646.81
2023-11-30T03:41:52.413Z,99644.47
2023-11-30T03:43:55.227Z,99641.00
2023-11-30T03:45:57.994Z,99625.38
2023-11-30T03:48:01.441Z,99621.81
2023-11-30T03:50:04.371Z,99618.28
2023-11-30T03:52:07.111Z,99615.09
2023-11-30T03:54:09.846Z,99606.56
2023-11-30T03:56:12.668Z,99607.59
2023-11-30T03:58:15.418Z,99619.78
2023-11-30T04:00:18.564Z,99615.72
2023-11-30T04:02:22.063Z,99608.69
2023-11-30T04:04:24.962Z,99603.53
2023-11-30T04:06:27.948Z,99607.03
2023-11-30T04:08:30.763Z,99590.53
2023-11-30T04:10:33.500Z,99586.16
2023-11-30T04:12:36.235Z,99586.22
2023-11-30T04:14:38.966Z,99591.31
2023-11-30T04:16:41.782Z,99575.78
2023-11-30T04:18:45.463Z,99573.16
2023-11-30T04:20:48.273Z,99570.75
2023-11-30T04:22:51.092Z,99568.16
2023-11-30T04:24:53.835Z,99562.06
2023-11-30T04:26:56.641Z,99558.59
2023-11-30T04:28:59.481Z,99550.03
2023-11-30T04:31:02.327Z,99567.28
2023-11-30T04:33:05.311Z,99561.31
2023-11-30T04:35:08.834Z,99561.34
2023-11-30T04:37:11.630Z,99566.56
2023-11-30T04:39:14.515Z,99563.09
2023-11-30T04:41:17.453Z,99558.78
2023-11-30T04:43:20.305Z,99556.97
2023-11-30T04:45:29.373Z,99557.72
2023-11-30T04:47:32.966Z,99562.88
2023-11-30T04:49:35.852Z,99559.50
2023-11-30T04:51:38.622Z,99559.41
2023-11-30T04:53:41.601Z,99555.94
2023-11-30T04:55:44.354Z,99536.94
2023-11-30T04:57:47.107Z,99534.28
2023-11-30T04:59:49.861Z,99533.47
2023-11-30T05:01:53.127Z,99538.78
2023-11-30T05:03:58.317Z,99522.22
2023-11-30T05:06:01.341Z,99513.69
2023-11-30T05:08:04.317Z,99521.31
2023-11-30T05:10:07.484Z,99526.63
2023-11-30T05:12:10.293Z,99521.44
2023-11-30T05:14:13.085Z,99529.19
2023-11-30T05:16:16.066Z,99524.88
2023-11-30T05:18:19.442Z,99527.28
2023-11-30T05:20:22.220Z,99519.56
2023-11-30T05:22:24.979Z,99526.31
2023-11-30T05:24:27.737Z,99528.53
2023-11-30T05:26:30.496Z,99524.94
2023-11-30T05:28:33.567Z,99529.31
2023-11-30T05:30:36.382Z,99533.41
2023-11-30T05:32:39.142Z,99531.03
2023-11-30T05:34:41.992Z,99523.94
2023-11-30T05:36:44.753Z,99522.13
2023-11-30T05:38:47.544Z,99514.41
2023-11-30T05:40:50.453Z,99519.34
2023-11-30T05:42:53.181Z,99511.66
2023-11-30T05:44:55.978Z,99510.81
2023-11-30T05:46:58.850Z,99506.47
2023-11-30T05:49:01.699Z,99509.06
2023-11-30T05:51:04.834Z,99501.34
2023-11-30T05:53:07.575Z,99502.38
2023-11-30T05:55:11.761Z,99498.72
2023-11-30T05:57:14.547Z,99496.78
2023-11-30T05:59:17.267Z,99501.22
2023-11-30T06:01:20.242Z,99518.44
2023-11-30T06:03:23.117Z,99503.78
2023-11-30T06:05:26.066Z,99504.63
2023-11-30T06:07:28.976Z,99507.25
2023-11-30T06:09:31.789Z,99490.81
2023-11-30T06:11:34.859Z,99491.53
2023-11-30T06:13:37.616Z,99494.25
2023-11-30T06:15:40.453Z,99495.84
2023-11-30T06:17:43.241Z,99497.44
2023-11-30T06:19:46.427Z,99500.00
2023-11-30T06:21:49.178Z,99481.94
2023-11-30T06:23:51.974Z,99482.59
2023-11-30T06:25:57.643Z,99482.78
2023-11-30T06:28:00.405Z,99494.09
2023-11-30T06:30:04.010Z,99488.19
2023-11-30T06:32:06.773Z,99493.16
2023-11-30T06:34:09.518Z,99494.03
2023-11-30T06:36:12.570Z,99490.50
2023-11-30T06:38:15.318Z,99485.16
2023-11-30T06:40:18.563Z,99493.88
2023-11-30T06:42:21.312Z,99505.88
2023-11-30T06:44:24.129Z,99502.47
2023-11-30T06:46:26.976Z,99514.34
2023-11-30T06:48:29.773Z,99513.88
2023-11-30T06:50:33.701Z,99511.88
2023-11-30T06:52:36.430Z,99526.81
2023-11-30T06:54:39.348Z,99519.06
2023-11-30T06:56:42.743Z,99506.94
2023-11-30T06:58:45.565Z,99521.00
2023-11-30T07:00:48.378Z,99517.22
2023-11-30T07:02:51.159Z,99515.69
2023-11-30T07:04:53.992Z,99519.22
2023-11-30T07:06:56.808Z,99537.34
2023-11-30T07:08:59.618Z,99537.31
2023-11-30T07:11:02.353Z,99528.75
2023-11-30T07:13:05.099Z,99527.94
2023-11-30T07:15:08.739Z,99530.81
2023-11-30T07:17:11.569Z,99523.03
2023-11-30T07:19:14.842Z,99520.66
2023-11-30T07:21:17.632Z,99520.50
2023-11-30T07:23:20.417Z,99515.56
2023-11-30T07:25:23.911Z,99507.88
2023-11-30T07:27:27.620Z,99508.59
2023-11-30T07:29:34.532Z,99513.09
2023-11-30T07:31:37.394Z,99506.00
2023-11-30T07:33:40.188Z,99503.31
2023-11-30T07:35:44.018Z,99506.88
2023-11-30T07:37:46.812Z,99506.00
2023-11-30T07:39:49.610Z,99518.78
2023-11-30T07:41:52.402Z,99513.50
2023-11-30T07:43:55.133Z,99513.72
2023-11-30T07:45:58.029Z,99512.06
2023-11-30T07:48:01.066Z,99501.56
2023-11-30T07:50:04.071Z,99492.06
2023-11-30T07:52:06.966Z,99480.75
2023-11-30T07:54:09.758Z,99485.16
2023-11-30T07:56:12.526Z,99489.69
2023-11-30T07:58:15.276Z,99481.91
2023-11-30T08:00:18.532Z,99479.13
2023-11-30T08:02:21.331Z,99476.53
2023-11-30T08:04:24.442Z,99486.94
2023-11-30T08:06:27.264Z,99471.41
2023-11-30T08:08:30.022Z,99468.75
2023-11-30T08:10:40.865Z,99461.78
2023-11-30T08:12:43.606Z,99464.09
2023-11-30T08:14:46.388Z,99458.84
2023-11-30T08:16:49.139Z,99449.06
2023-11-30T08:18:51.963Z,99446.44
2023-11-30T08:20:55.577Z,99461.81
2023-11-30T08:22:58.323Z,99466.28
2023-11-30T08:25:01.325Z,99449.53
2023-11-30T08:27:04.772Z,99449.44
2023-11-30T08:29:07.562Z,99445.75
2023-11-30T08:31:10.378Z,99456.47
2023-11-30T08:33:13.306Z,99454.88
2023-11-30T08:35:16.157Z,99447.50
2023-11-30T08:37:19.634Z,99444.16
2023-11-30T08:39:25.334Z,99444.00
2023-11-30T08:41:28.257Z,99444.03
2023-11-30T08:43:31.214Z,99435.63
2023-11-30T08:45:34.032Z,99438.31
2023-11-30T08:47:37.126Z,99437.78
2023-11-30T08:49:39.940Z,99441.38
2023-11-30T08:51:46.002Z,99448.78
2023-11-30T08:53:49.030Z,99459.75
2023-11-30T08:55:51.791Z,99452.69
2023-11-30T08:57:55.403Z,99443.13
2023-11-30T08:59:58.184Z,99452.50
2023-11-30T09:02:00.986Z,99447.09
2023-11-30T09:04:07.305Z,99455.78
2023-11-30T09:06:10.542Z,99449.53
2023-11-30T09:08:13.333Z,99447.56
2023-11-30T09:10:16.948Z,99447.38
2023-11-30T09:12:19.763Z,99440.72
2023-11-30T09:14:22.583Z,99450.53
2023-11-30T09:16:26.746Z,99454.88
2023-11-30T09:18:29.629Z,99453.19
2023-11-30T09:20:32.381Z,99449.56
2023-11-30T09:22:38.790Z,99433.88
2023-11-30T09:24:41.779Z,99437.41
2023-11-30T09:26:46.391Z,99429.75
2023-11-30T09:28:50.161Z,99429.66
2023-11-30T09:30:53.066Z,99420.75
2023-11-30T09:32:56.061Z,99428.59
2023-11-30T09:34:58.838Z,99422.22
2023-11-30T09:37:01.675Z,99430.38
2023-11-30T09:39:04.432Z,99424.16
2023-11-30T09:41:08.003Z,99421.56
2023-11-30T09:43:11.136Z,99424.84
2023-11-30T09:45:15.821Z,99418.06
2023-11-30T09:47:18.970Z,99418.03
2023-11-30T09:49:21.774Z,99411.78
2023-11-30T09:51:27.025Z,99404.06
2023-11-30T09:53:30.181Z,99399.56
2023-11-30T09:55:32.986Z,99400.09
2023-11-30T09:57:35.888Z,99388.09
2023-11-30T09:59:39.032Z,99390.56
2023-11-30T10:01:42.067Z,99383.84
2023-11-30T10:03:45.146Z,99381.22
2023-11-30T10:05:48.300Z,99370.84
2023-11-30T10:07:51.492Z,99373.31
2023-11-30T10:09:54.329Z,99381.91
2023-11-30T10:11:57.882Z,99382.03
2023-11-30T10:14:01.045Z,99382.75
2023-11-30T10:16:07.068Z,99375.91
2023-11-30T10:18:11.927Z,99372.53
2023-11-30T10:20:15.422Z,99363.75
2023-11-30T10:22:18.274Z,99361.13
2023-11-30T10:24:21.185Z,99356.91
2023-11-30T10:26:25.871Z,99349.28
2023-11-30T10:28:29.026Z,99343.22
2023-11-30T10:30:33.614Z,99335.16
2023-11-30T10:32:41.013Z,99335.16
2023-11-30T10:34:53.700Z,99322.06
2023-11-30T10:37:01.190Z,99316.97
2023-11-30T10:39:17.809Z,99318.81
2023-11-30T10:41:28.032Z,99319.19
2023-11-30T10:43:33.800Z,99306.84
2023-11-30T10:45:40.737Z,99315.00
2023-11-30T10:47:44.316Z,99317.41
2023-11-30T10:49:50.142Z,99302.75
2023-11-30T10:51:56.656Z,99294.13
2023-11-30T10:54:09.463Z,99298.38
2023-11-30T10:56:14.974Z,99285.91
2023-11-30T10:58:25.180Z,99274.81
2023-11-30T11:00:35.144Z,99275.72
2023-11-30T11:02:46.216Z,99278.31
2023-11-30T11:04:48.966Z,99268.59
2023-11-30T11:07:02.019Z,99269.34
2023-11-30T11:09:08.942Z,99270.41
2023-11-30T11:11:12.117Z,99272.59
2023-11-30T11:13:27.477Z,99267.19
2023-11-30T11:15:31.335Z,99267.88
2023-11-30T11:17:34.225Z,99260.31
2023-11-30T11:19:41.793Z,99264.00
2023-11-30T11:21:45.222Z,99260.72
2023-11-30T11:23:49.413Z,99249.44
2023-11-30T11:25:58.404Z,99251.00
2023-11-30T11:28:01.558Z,99261.31
2023-11-30T11:30:08.604Z,99262.06
2023-11-30T11:32:13.221Z,99264.75
2023-11-30T11:34:17.242Z,99254.88
2023-11-30T11:36:20.117Z,99248.81
2023-11-30T11:38:23.022Z,99252.19
2023-11-30T11:40:26.647Z,99239.81
2023-11-30T11:42:29.442Z,99233.59
2023-11-30T11:44:32.274Z,99229.09
2023-11-30T11:46:35.110Z,99228.41
2023-11-30T11:48:37.909Z,99221.41
2023-11-30T11:50:43.310Z,99219.19
2023-11-30T11:52:46.067Z,99218.94
2023-11-30T11:55:02.872Z,99226.41
2023-11-30T11:57:06.232Z,99231.59
2023-11-30T11:59:09.016Z,99238.75
2023-11-30T12:01:12.750Z,99229.00
2023-11-30T12:03:15.653Z,99237.75
2023-11-30T12:05:26.852Z,99236.84
2023-11-30T12:07:30.029Z,99224.91
2023-11-30T12:09:32.906Z,99226.94
2023-11-30T12:11:35.748Z,99233.91
2023-11-30T12:13:38.994Z,99230.44
2023-11-30T12:15:43.050Z,99225.16
2023-11-30T12:17:46.799Z,99226.91
2023-11-30T12:19:49.613Z,99224.34
2023-11-30T12:21:52.459Z,99223.69
2023-11-30T12:23:56.622Z,99218.22
2023-11-30T12:25:59.477Z,99231.94
2023-11-30T12:28:02.381Z,99226.59
2023-11-30T12:30:05.784Z,99223.22
2023-11-30T12:32:08.690Z,99217.94
2023-11-30T12:34:11.523Z,99217.16
2023-11-30T12:36:15.380Z,99209.66
2023-11-30T12:38:18.549Z,99206.00
2023-11-30T12:40:21.339Z,99199.25
2023-11-30T12:42:25.271Z,99193.91
2023-11-30T12:44:28.250Z,99186.81
2023-11-30T12:46:31.070Z,99181.63
2023-11-30T12:48:34.176Z,99180.66
2023-11-30T12:50:37.102Z,99171.97
2023-11-30T12:52:39.869Z,99172.91
2023-11-30T12:54:42.725Z,99166.88
2023-11-30T12:56:45.583Z,99172.22
2023-11-30T12:58:48.509Z,99164.22
2023-11-30T13:00:51.374Z,99165.22
2023-11-30T13:02:54.433Z,99165.31
2023-11-30T13:04:57.897Z,99166.22
2023-11-30T13:07:01.838Z,99161.66
2023-11-30T13:09:05.114Z,99160.22
2023-11-30T13:11:08.654Z,99154.91
2023-11-30T13:13:11.599Z,99152.34
2023-11-30T13:15:14.699Z,99148.84
2023-11-30T13:17:18.264Z,99145.38
2023-11-30T13:19:24.702Z,99146.13
2023-11-30T13:21:28.978Z,99146.34
2023-11-30T13:23:32.008Z,99143.53
2023-11-30T13:25:34.844Z,99135.81
2023-11-30T13:27:37.675Z,99140.28
2023-11-30T13:29:40.493Z,99141.72
2023-11-30T13:31:43.607Z,99135.09
2023-11-30T13:33:46.600Z,99130.47
2023-11-30T13:35:49.719Z,99127.94
2023-11-30T13:37:52.608Z,99121.13
2023-11-30T13:39:55.403Z,99110.53
2023-11-30T13:42:00.876Z,99120.94
2023-11-30T13:44:06.185Z,99115.44
2023-11-30T13:46:14.146Z,99128.63
2023-11-30T13:48:17.242Z,99126.34
2023-11-30T13:50:30.245Z,99126.22
2023-11-30T13:52:39.317Z,99137.16
2023-11-30T13:54:42.143Z,99107.81
2023-11-30T13:56:44.937Z,99099.06
2023-11-30T13:58:47.681Z,99109.31
2023-11-30T14:00:50.496Z,99107.47
2023-11-30T14:02:53.397Z,99099.81
2023-11-30T14:04:56.213Z,99098.44
2023-11-30T14:06:59.423Z,99099.75
2023-11-30T14:09:02.234Z,99104.28
2023-11-30T14:11:10.548Z,99104.03
2023-11-30T14:13:13.307Z,99102.69
2023-11-30T14:15:16.585Z,99099.13
2023-11-30T14:17:19.420Z,99104.72
2023-11-30T14:19:22.413Z,99108.41
2023-11-30T14:21:25.183Z,99107.97
2023-11-30T14:23:28.418Z,99104.44
2023-11-30T14:25:31.186Z,99105.72
2023-11-30T14:27:34.187Z,99107.78
2023-11-30T14:29:36.970Z,99111.59
2023-11-30T14:31:39.785Z,99096.94
2023-11-30T14:33:43.046Z,99093.16
2023-11-30T14:35:45.782Z,99081.03
2023-11-30T14:37:48.541Z,99085.53
2023-11-30T14:39:51.609Z,99078.38
2023-11-30T14:41:54.423Z,99073.84
2023-11-30T14:43:57.543Z,99066.50
2023-11-30T14:46:00.417Z,99063.75
2023-11-30T14:48:07.118Z,99062.81
2023-11-30T14:50:16.813Z,99069.50
2023-11-30T14:52:19.767Z,99065.44
2023-11-30T14:54:22.558Z,99057.75
2023-11-30T14:56:26.700Z,99078.31
2023-11-30T14:58:29.548Z,99052.44
2023-11-30T15:00:37.933Z,99040.44
2023-11-30T15:02:40.785Z,99052.66
2023-11-30T15:04:43.548Z,99038.97
2023-11-30T15:06:46.329Z,99034.69
2023-11-30T15:08:49.088Z,99022.47
2023-11-30T15:10:51.899Z,99023.00
2023-11-30T15:12:55.573Z,99021.97
2023-11-30T15:14:58.361Z,99014.06
2023-11-30T15:17:01.151Z,99009.78
2023-11-30T15:19:05.237Z,99014.63
2023-11-30T15:21:08.757Z,99013.09
2023-11-30T15:23:11.602Z,99010.00
2023-11-30T15:25:18.972Z,99023.91
2023-11-30T15:27:22.246Z,99009.66
2023-11-30T15:29:25.359Z,99015.66
2023-11-30T15:31:28.152Z,99008.94
2023-11-30T15:33:30.954Z,99009.38
2023-11-30T15:35:33.958Z,99010.38
2023-11-30T15:37:36.922Z,99017.16
2023-11-30T15:39:39.755Z,99004.38
2023-11-30T15:41:47.567Z,99014.72
2023-11-30T15:43:50.364Z,99003.44
2023-11-30T15:45:53.339Z,99007.84
2023-11-30T15:47:56.256Z,99014.19
2023-11-30T15:49:59.091Z,99006.16
2023-11-30T15:52:01.860Z,99002.34
2023-11-30T15:54:04.849Z,98999.13
2023-11-30T15:56:09.036Z,98991.28
2023-11-30T15:58:12.200Z,99000.25
2023-11-30T16:00:15.423Z,98990.25
2023-11-30T16:02:18.341Z,98995.63
2023-11-30T16:04:21.279Z,98993.59
2023-11-30T16:06:24.814Z,98984.19
2023-11-30T16:08:28.215Z,98983.00
2023-11-30T16:10:30.966Z,98976.56
2023-11-30T16:12:33.787Z,98982.50
2023-11-30T16:14:36.530Z,98984.19
2023-11-30T16:16:42.549Z,98978.84
2023-11-30T16:18:45.349Z,98969.34
2023-11-30T16:20:48.166Z,98969.56
2023-11-30T16:22:51.100Z,98967.25
2023-11-30T16:24:54.143Z,98958.22
2023-11-30T16:26:57.824Z,98967.88
2023-11-30T16:29:00.664Z,98962.63
2023-11-30T16:31:04.600Z,98967.63
2023-11-30T16:33:07.466Z,98966.34
2023-11-30T16:35:10.282Z,98968.84
2023-11-30T16:37:13.076Z,98967.25
2023-11-30T16:39:16.262Z,98965.81
2023-11-30T16:41:19.111Z,98944.25
2023-11-30T16:43:22.253Z,98940.41
2023-11-30T16:45:26.216Z,98936.25
2023-11-30T16:47:30.447Z,98936.13
2023-11-30T16:49:33.214Z,98924.53
2023-11-30T16:51:41.599Z,98929.84
2023-11-30T16:53:46.550Z,98920.22
2023-11-30T16:55:49.415Z,98922.88
2023-11-30T16:57:52.159Z,98919.22
2023-11-30T16:59:54.985Z,98924.34
2023-11-30T17:01:58.442Z,98919.28
2023-11-30T17:04:03.791Z,98909.72
2023-11-30T17:06:06.823Z,98916.16
2023-11-30T17:08:09.618Z,98910.06
2023-11-30T17:10:12.474Z,98899.72
2023-11-30T17:12:16.069Z,98887.78
2023-11-30T17:14:18.819Z,98890.66
2023-11-30T17:16:23.364Z,98877.13
2023-11-30T17:18:26.212Z,98889.50
2023-11-30T17:20:29.114Z,98890.72
2023-11-30T17:22:31.985Z,98877.38
2023-11-30T17:24:34.787Z,98883.88
2023-11-30T17:26:37.554Z,98881.31
2023-11-30T17:28:40.366Z,98884.72
2023-11-30T17:30:43.301Z,98868.41
2023-11-30T17:32:46.195Z,98860.63
2023-11-30T17:34:49.563Z,98867.44
2023-11-30T17:36:53.399Z,98866.63
2023-11-30T17:38:56.208Z,98841.47
2023-11-30T17:40:58.992Z,98853.53
2023-11-30T17:43:01.794Z,98844.78
2023-11-30T17:45:06.297Z,98824.09
2023-11-30T17:47:09.375Z,98818.44
2023-11-30T17:49:12.633Z,98822.41
2023-11-30T17:51:19.157Z,98814.41
2023-11-30T17:53:22.399Z,98807.84
2023-11-30T17:55:25.363Z,98811.47
2023-11-30T17:57:28.820Z,98806.34
2023-11-30T17:59:31.895Z,98790.94
2023-11-30T18:01:34.829Z,98776.13
2023-11-30T18:03:38.006Z,98788.41
2023-11-30T18:05:41.149Z,98780.47
2023-11-30T18:07:43.912Z,98784.91
2023-11-30T18:09:47.074Z,98793.03
2023-11-30T18:11:50.034Z,98785.84
2023-11-30T18:13:52.800Z,98797.69
2023-11-30T18:15:56.270Z,98789.88
2023-11-30T18:18:00.224Z,98778.69
2023-11-30T18:20:03.470Z,98780.66
2023-11-30T18:22:06.704Z,98786.69
2023-11-30T18:24:09.566Z,98770.50
2023-11-30T18:26:12.354Z,98771.59
2023-11-30T18:28:15.110Z,98767.03
2023-11-30T18:30:17.863Z,98762.94
2023-11-30T18:32:20.771Z,98757.97
2023-11-30T18:34:24.227Z,98765.53
2023-11-30T18:36:27.329Z,98783.59
2023-11-30T18:38:37.049Z,98791.94
2023-11-30T18:40:45.021Z,98784.69
2023-11-30T18:42:51.180Z,98789.47
2023-11-30T18:44:54.336Z,98797.84
2023-11-30T18:46:57.634Z,98778.63
2023-11-30T18:49:02.013Z,98785.09
2023-11-30T18:51:07.262Z,98790.59
2023-11-30T18:53:11.127Z,98770.69
2023-11-30T18:55:14.828Z,98779.09
2023-11-30T18:57:18.645Z,98778.13
2023-11-30T18:59:22.972Z,98768.00
2023-11-30T19:01:27.760Z,98763.66
2023-11-30T19:03:31.212Z,98755.63
2023-11-30T19:05:36.819Z,98757.53
2023-11-30T19:07:42.536Z,98752.78
2023-11-30T19:09:46.305Z,98750.34
2023-11-30T19:11:50.522Z,98741.47
2023-11-30T19:13:53.956Z,98735.28
2023-11-30T19:15:57.380Z,98739.53
2023-11-30T19:18:01.816Z,98736.75
2023-11-30T19:20:07.630Z,98740.75
2023-11-30T19:22:10.812Z,98741.91
2023-11-30T19:24:16.266Z,98740.59
2023-11-30T19:26:20.332Z,98742.22
2023-11-30T19:28:23.593Z,98735.31
2023-11-30T19:30:29.104Z,98736.59
2023-11-30T19:32:32.417Z,98743.69
2023-11-30T19:34:35.924Z,98743.13
2023-11-30T19:36:40.791Z,98744.75
2023-11-30T19:38:44.902Z,98742.34
2023-11-30T19:40:48.609Z,98749.94
2023-11-30T19:42:52.275Z,98752.75
2023-11-30T19:44:55.991Z,98738.09
2023-11-30T19:46:59.825Z,98742.75
2023-11-30T19:49:03.774Z,98731.44
2023-11-30T19:51:07.718Z,98728.78
2023-11-30T19:53:11.261Z,98724.50
2023-11-30T19:55:15.126Z,98717.63
2023-11-30T19:57:19.542Z,98724.19
2023-11-30T19:59:23.135Z,98746.72
2023-11-30T20:01:26.748Z,98728.91
2023-11-30T20:03:30.599Z,98734.72
2023-11-30T20:05:34.428Z,98735.47
2023-11-30T20:07:37.978Z,98721.88
2023-11-30T20:09:42.087Z,98716.63
2023-11-30T20:11:45.762Z,98720.13
2023-11-30T20:13:49.880Z,98723.91
2023-11-30T20:15:53.495Z,98729.34
2023-11-30T20:17:57.179Z,98719.28
2023-11-30T20:20:00.720Z,98729.41
2023-11-30T20:22:04.250Z,98728.56
2023-11-30T20:24:07.993Z,98719.53
2023-11-30T20:26:11.540Z,98714.72
2023-11-30T20:28:15.148Z,98731.75
2023-11-30T20:30:18.621Z,98738.97
2023-11-30T20:32:24.674Z,98725.13
2023-11-30T20:34:29.327Z,98738.06
2023-11-30T20:36:34.029Z,98707.16
2023-11-30T20:38:40.594Z,98708.28
2023-11-30T20:40:46.438Z,98704.75
2023-11-30T20:42:50.684Z,98714.13
2023-11-30T20:44:56.065Z,98714.91
2023-11-30T20:46:59.402Z,98682.00
2023-11-30T20:49:03.352Z,98683.69
2023-11-30T20:51:06.570Z,98699.09
2023-11-30T20:53:09.612Z,98705.16
2023-11-30T20:55:14.041Z,98712.56
2023-11-30T20:57:16.884Z,98707.34
2023-11-30T20:59:22.779Z,98718.53
2023-11-30T21:01:25.771Z,98718.38
2023-11-30T21:03:28.759Z,98737.09
2023-11-30T21:05:31.594Z,98716.25
2023-11-30T21:07:34.348Z,98708.66
2023-11-30T21:09:38.063Z,98694.97
2023-11-30T21:11:40.839Z,98683.13
2023-11-30T21:13:48.067Z,98691.78
2023-11-30T21:16:05.805Z,98696.78
2023-11-30T21:18:08.754Z,98694.25
2023-11-30T21:20:11.647Z,98686.19
2023-11-30T21:22:23.473Z,98685.66
2023-11-30T21:24:26.990Z,98681.97
2023-11-30T21:26:29.755Z,98690.56
2023-11-30T21:28:32.634Z,98697.78
2023-11-30T21:30:44.504Z,98711.56
2023-11-30T21:32:47.273Z,98713.94
2023-11-30T21:34:50.050Z,98704.44
2023-11-30T21:36:52.871Z,98701.16
2023-11-30T21:38:55.643Z,98695.09
2023-11-30T21:40:59.501Z,98698.47
2023-11-30T21:43:03.395Z,98703.47
2023-11-30T21:45:06.567Z,98697.22
2023-11-30T21:47:13.282Z,98691.09
2023-11-30T21:49:19.867Z,98692.72
2023-11-30T21:51:28.869Z,98697.88
2023-11-30T21:53:36.031Z,98707.94
2023-11-30T21:55:40.012Z,98690.47
2023-11-30T21:57:42.798Z,98700.38
2023-11-30T21:59:45.576Z,98710.00
2023-11-30T22:01:48.499Z,98721.22
2023-11-30T22:03:51.460Z,98716.06
2023-11-30T22:05:54.251Z,98712.84
2023-11-30T22:07:57.163Z,98719.44
2023-11-30T22:09:59.965Z,98717.03
2023-11-30T22:12:06.512Z,98713.78
2023-11-30T22:14:09.283Z,98718.13
2023-11-30T22:16:18.739Z,98733.81
2023-11-30T22:18:26.621Z,98703.22
2023-11-30T22:20:29.394Z,98718.22
2023-11-30T22:22:32.140Z,98722.50
2023-11-30T22:24:35.082Z,98721.56
2023-11-30T22:26:37.864Z,98721.03
2023-11-30T22:28:40.688Z,98720.66
2023-11-30T22:30:43.620Z,98717.31
2023-11-30T22:32:46.476Z,98715.25
2023-11-30T22:34:49.266Z,98714.22
2023-11-30T22:36:52.077Z,98715.91
2023-11-30T22:38:55.431Z,98713.22
2023-11-30T22:40:58.637Z,98718.28
2023-11-30T22:43:01.445Z,98727.25
2023-11-30T22:45:05.554Z,98729.44
2023-11-30T22:47:08.297Z,98736.94
2023-11-30T22:49:11.111Z,98736.66
2023-11-30T22:51:14.046Z,98731.44
2023-11-30T22:53:16.832Z,98732.41
2023-11-30T22:55:19.871Z,98731.38
2023-11-30T22:57:23.131Z,98739.19
2023-11-30T22:59:25.963Z,98731.44
2023-11-30T23:01:28.927Z,98735.78
2023-11-30T23:03:31.995Z,98733.38
2023-11-30T23:05:37.411Z,98738.28
2023-11-30T23:07:41.662Z,98730.63
2023-11-30T23:09:44.403Z,98723.97
2023-11-30T23:11:47.162Z,98725.81
2023-11-30T23:13:49.925Z,98727.50
2023-11-30T23:15:53.124Z,98711.78
2023-11-30T23:17:56.846Z,98717.81
2023-11-30T23:19:59.587Z,98721.25
2023-11-30T23:22:02.617Z,98712.47
2023-11-30T23:24:05.608Z,98717.00
2023-11-30T23:26:08.399Z,98719.91
2023-11-30T23:28:13.497Z,98724.50
2023-11-30T23:30:16.284Z,98734.84
2023-11-30T23:32:19.020Z,98738.84
2023-11-30T23:34:22.838Z,98738.69
2023-11-30T23:36:27.330Z,98749.00
2023-11-30T23:38:30.242Z,98753.31
2023-11-30T23:40:33.019Z,98749.72
2023-11-30T23:42:35.876Z,98743.66
2023-11-30T23:44:38.985Z,98748.81
2023-11-30T23:46:42.004Z,98746.19
2023-11-30T23:48:45.900Z,98756.44
2023-11-30T23:50:48.668Z,98755.44
2023-11-30T23:52:51.492Z,98755.75
2023-11-30T23:54:54.251Z,98754.69
2023-11-30T23:56:57.033Z,98758.06
2023-11-30T23:58:59.779Z,98760.75
